sensor_id;sensor_type;location;lat;lon;timestamp;temperature;humidity
32769;DHT22;23049;54.304;8.826;2023-06-05T00:00:52;9.60;99.90
32769;DHT22;23049;54.304;8.826;2023-06-05T00:03:18;9.70;99.90
32769;DHT22;23049;54.304;8.826;2023-06-05T00:05:43;9.90;99.90
32769;DHT22;23049;54.304;8.826;2023-06-05T00:08:09;9.70;99.90
32769;DHT22;23049;54.304;8.826;2023-06-05T00:10:34;9.80;99.90
32769;DHT22;23049;54.304;8.826;2023-06-05T00:13:00;9.70;99.90
32769;DHT22;23049;54.304;8.826;2023-06-05T00:15:25;9.80;99.90
32769;DHT22;23049;54.304;8.826;2023-06-05T00:17:51;10.00;99.90
32769;DHT22;23049;54.304;8.826;2023-06-05T00:20:17;10.30;99.90
32769;DHT22;23049;54.304;8.826;2023-06-05T00:22:42;10.30;99.90
32769;DHT22;23049;54.304;8.826;2023-06-05T00:25:09;10.30;99.90
32769;DHT22;23049;54.304;8.826;2023-06-05T00:27:35;10.30;99.90
32769;DHT22;23049;54.304;8.826;2023-06-05T00:30:01;10.30;99.90
32769;DHT22;23049;54.304;8.826;2023-06-05T00:32:26;10.50;99.90
32769;DHT22;23049;54.304;8.826;2023-06-05T00:34:52;10.50;99.90
32769;DHT22;23049;54.304;8.826;2023-06-05T00:37:17;10.60;99.90
32769;DHT22;23049;54.304;8.826;2023-06-05T00:39:43;10.60;99.90
32769;DHT22;23049;54.304;8.826;2023-06-05T00:42:09;10.60;99.90
32769;DHT22;23049;54.304;8.826;2023-06-05T00:44:34;10.70;99.90
32769;DHT22;23049;54.304;8.826;2023-06-05T00:47:00;10.60;99.90
32769;DHT22;23049;54.304;8.826;2023-06-05T00:49:26;10.70;99.90
32769;DHT22;23049;54.304;8.826;2023-06-05T00:51:52;10.70;99.90
32769;DHT22;23049;54.304;8.826;2023-06-05T00:54:17;10.80;99.90
32769;DHT22;23049;54.304;8.826;2023-06-05T00:56:43;10.80;99.90
32769;DHT22;23049;54.304;8.826;2023-06-05T00:59:09;10.70;99.90
32769;DHT22;23049;54.304;8.826;2023-06-05T01:01:35;10.80;99.90
32769;DHT22;23049;54.304;8.826;2023-06-05T01:04:01;10.90;99.90
32769;DHT22;23049;54.304;8.826;2023-06-05T01:06:27;10.90;99.90
32769;DHT22;23049;54.304;8.826;2023-06-05T01:08:53;11.00;99.90
32769;DHT22;23049;54.304;8.826;2023-06-05T01:11:31;11.00;99.90
32769;DHT22;23049;54.304;8.826;2023-06-05T01:14:00;10.90;99.90
32769;DHT22;23049;54.304;8.826;2023-06-05T01:16:28;11.00;99.90
32769;DHT22;23049;54.304;8.826;2023-06-05T01:18:59;11.00;99.90
32769;DHT22;23049;54.304;8.826;2023-06-05T01:21:28;10.90;99.90
32769;DHT22;23049;54.304;8.826;2023-06-05T01:23:54;11.00;99.90
32769;DHT22;23049;54.304;8.826;2023-06-05T01:26:20;10.90;99.90
32769;DHT22;23049;54.304;8.826;2023-06-05T01:31:02;10.90;99.90
32769;DHT22;23049;54.304;8.826;2023-06-05T01:33:32;10.90;99.90
32769;DHT22;23049;54.304;8.826;2023-06-05T01:36:17;11.00;99.90
32769;DHT22;23049;54.304;8.826;2023-06-05T01:38:43;10.90;99.90
32769;DHT22;23049;54.304;8.826;2023-06-05T01:41:10;10.80;99.90
32769;DHT22;23049;54.304;8.826;2023-06-05T01:43:36;10.70;99.90
32769;DHT22;23049;54.304;8.826;2023-06-05T01:46:02;10.70;99.90
32769;DHT22;23049;54.304;8.826;2023-06-05T01:48:27;10.70;99.90
32769;DHT22;23049;54.304;8.826;2023-06-05T01:50:57;10.60;99.90
32769;DHT22;23049;54.304;8.826;2023-06-05T01:53:24;10.50;99.90
32769;DHT22;23049;54.304;8.826;2023-06-05T01:55:50;10.60;99.90
32769;DHT22;23049;54.304;8.826;2023-06-05T01:58:18;10.60;99.90
32769;DHT22;23049;54.304;8.826;2023-06-05T02:00:44;10.70;99.90
32769;DHT22;23049;54.304;8.826;2023-06-05T02:03:11;10.70;99.90
32769;DHT22;23049;54.304;8.826;2023-06-05T02:05:37;10.80;99.90
32769;DHT22;23049;54.304;8.826;2023-06-05T02:08:02;10.80;99.90
32769;DHT22;23049;54.304;8.826;2023-06-05T02:10:30;10.70;99.90
32769;DHT22;23049;54.304;8.826;2023-06-05T02:12:56;10.60;99.90
32769;DHT22;23049;54.304;8.826;2023-06-05T02:15:22;10.50;99.90
32769;DHT22;23049;54.304;8.826;2023-06-05T02:17:48;10.60;99.90
32769;DHT22;23049;54.304;8.826;2023-06-05T02:20:19;10.60;99.90
32769;DHT22;23049;54.304;8.826;2023-06-05T02:22:44;10.60;99.90
32769;DHT22;23049;54.304;8.826;2023-06-05T02:25:10;10.70;99.90
32769;DHT22;23049;54.304;8.826;2023-06-05T02:27:36;10.90;99.90
32769;DHT22;23049;54.304;8.826;2023-06-05T02:30:02;11.00;99.90
32769;DHT22;23049;54.304;8.826;2023-06-05T02:32:28;11.10;99.90
32769;DHT22;23049;54.304;8.826;2023-06-05T02:34:54;11.00;99.90
32769;DHT22;23049;54.304;8.826;2023-06-05T02:37:25;10.90;99.90
32769;DHT22;23049;54.304;8.826;2023-06-05T02:39:51;10.80;99.90
32769;DHT22;23049;54.304;8.826;2023-06-05T02:42:17;10.80;99.90
32769;DHT22;23049;54.304;8.826;2023-06-05T02:44:44;10.80;99.90
32769;DHT22;23049;54.304;8.826;2023-06-05T02:47:09;10.60;99.90
32769;DHT22;23049;54.304;8.826;2023-06-05T02:49:35;10.70;99.90
32769;DHT22;23049;54.304;8.826;2023-06-05T02:52:02;11.00;99.90
32769;DHT22;23049;54.304;8.826;2023-06-05T02:54:28;11.10;99.90
32769;DHT22;23049;54.304;8.826;2023-06-05T02:56:54;11.10;99.90
32769;DHT22;23049;54.304;8.826;2023-06-05T02:59:24;11.20;99.90
32769;DHT22;23049;54.304;8.826;2023-06-05T03:01:50;11.30;99.90
32769;DHT22;23049;54.304;8.826;2023-06-05T03:04:16;11.30;99.90
32769;DHT22;23049;54.304;8.826;2023-06-05T03:06:47;11.40;99.90
32769;DHT22;23049;54.304;8.826;2023-06-05T03:09:13;11.40;99.90
32769;DHT22;23049;54.304;8.826;2023-06-05T03:11:38;11.50;99.90
32769;DHT22;23049;54.304;8.826;2023-06-05T03:14:04;11.50;99.90
32769;DHT22;23049;54.304;8.826;2023-06-05T03:16:30;11.50;99.90
32769;DHT22;23049;54.304;8.826;2023-06-05T03:18:58;11.50;99.90
32769;DHT22;23049;54.304;8.826;2023-06-05T03:21:24;11.50;99.90
32769;DHT22;23049;54.304;8.826;2023-06-05T03:23:49;11.60;99.90
32769;DHT22;23049;54.304;8.826;2023-06-05T03:26:15;11.60;99.90
32769;DHT22;23049;54.304;8.826;2023-06-05T03:28:40;11.60;99.90
32769;DHT22;23049;54.304;8.826;2023-06-05T03:31:06;11.70;99.90
32769;DHT22;23049;54.304;8.826;2023-06-05T03:33:32;11.70;99.90
32769;DHT22;23049;54.304;8.826;2023-06-05T03:35:57;11.50;99.90
32769;DHT22;23049;54.304;8.826;2023-06-05T03:38:23;11.50;99.90
32769;DHT22;23049;54.304;8.826;2023-06-05T03:40:48;11.50;99.90
32769;DHT22;23049;54.304;8.826;2023-06-05T03:43:14;11.60;99.90
32769;DHT22;23049;54.304;8.826;2023-06-05T03:45:40;11.60;99.90
32769;DHT22;23049;54.304;8.826;2023-06-05T03:48:06;11.50;99.90
32769;DHT22;23049;54.304;8.826;2023-06-05T03:50:31;11.50;99.90
32769;DHT22;23049;54.304;8.826;2023-06-05T03:52:59;11.50;99.90
32769;DHT22;23049;54.304;8.826;2023-06-05T03:55:30;11.60;99.90
32769;DHT22;23049;54.304;8.826;2023-06-05T03:58:10;11.70;99.90
32769;DHT22;23049;54.304;8.826;2023-06-05T04:00:38;11.80;99.90
32769;DHT22;23049;54.304;8.826;2023-06-05T04:03:04;11.90;99.90
32769;DHT22;23049;54.304;8.826;2023-06-05T04:05:29;12.00;99.90
32769;DHT22;23049;54.304;8.826;2023-06-05T04:07:55;12.00;99.90
32769;DHT22;23049;54.304;8.826;2023-06-05T04:10:21;11.90;99.90
32769;DHT22;23049;54.304;8.826;2023-06-05T04:12:46;11.80;99.90
32769;DHT22;23049;54.304;8.826;2023-06-05T04:15:12;11.80;99.90
32769;DHT22;23049;54.304;8.826;2023-06-05T04:17:38;11.80;99.90
32769;DHT22;23049;54.304;8.826;2023-06-05T04:20:04;11.80;99.90
32769;DHT22;23049;54.304;8.826;2023-06-05T04:22:30;11.80;99.90
32769;DHT22;23049;54.304;8.826;2023-06-05T04:24:56;11.90;99.90
32769;DHT22;23049;54.304;8.826;2023-06-05T04:27:21;11.90;99.90
32769;DHT22;23049;54.304;8.826;2023-06-05T04:29:53;12.10;99.90
32769;DHT22;23049;54.304;8.826;2023-06-05T04:32:19;12.10;99.90
32769;DHT22;23049;54.304;8.826;2023-06-05T04:34:45;12.10;99.90
32769;DHT22;23049;54.304;8.826;2023-06-05T04:37:10;12.10;99.90
32769;DHT22;23049;54.304;8.826;2023-06-05T04:39:36;12.10;99.90
32769;DHT22;23049;54.304;8.826;2023-06-05T04:42:01;12.20;99.90
32769;DHT22;23049;54.304;8.826;2023-06-05T04:44:27;12.20;99.90
32769;DHT22;23049;54.304;8.826;2023-06-05T04:46:53;12.20;99.90
32769;DHT22;23049;54.304;8.826;2023-06-05T04:49:18;12.20;99.90
32769;DHT22;23049;54.304;8.826;2023-06-05T04:51:44;12.20;99.90
32769;DHT22;23049;54.304;8.826;2023-06-05T04:54:10;12.20;99.90
32769;DHT22;23049;54.304;8.826;2023-06-05T04:56:35;12.20;99.90
32769;DHT22;23049;54.304;8.826;2023-06-05T04:59:02;12.20;99.90
32769;DHT22;23049;54.304;8.826;2023-06-05T05:01:28;12.20;99.90
32769;DHT22;23049;54.304;8.826;2023-06-05T05:03:54;12.30;99.90
32769;DHT22;23049;54.304;8.826;2023-06-05T05:06:20;12.20;99.90
32769;DHT22;23049;54.304;8.826;2023-06-05T05:08:46;12.10;99.90
32769;DHT22;23049;54.304;8.826;2023-06-05T05:11:13;12.20;99.90
32769;DHT22;23049;54.304;8.826;2023-06-05T05:13:39;12.00;99.90
32769;DHT22;23049;54.304;8.826;2023-06-05T05:16:05;12.00;99.90
32769;DHT22;23049;54.304;8.826;2023-06-05T05:18:30;11.90;99.90
32769;DHT22;23049;54.304;8.826;2023-06-05T05:20:56;11.90;99.90
32769;DHT22;23049;54.304;8.826;2023-06-05T05:23:21;12.00;99.90
32769;DHT22;23049;54.304;8.826;2023-06-05T05:25:47;11.90;99.90
32769;DHT22;23049;54.304;8.826;2023-06-05T05:28:13;12.00;99.90
32769;DHT22;23049;54.304;8.826;2023-06-05T05:30:39;12.00;99.90
32769;DHT22;23049;54.304;8.826;2023-06-05T05:33:04;12.20;99.90
32769;DHT22;23049;54.304;8.826;2023-06-05T05:35:30;12.10;99.90
32769;DHT22;23049;54.304;8.826;2023-06-05T05:37:56;12.10;99.90
32769;DHT22;23049;54.304;8.826;2023-06-05T05:40:21;11.90;99.90
32769;DHT22;23049;54.304;8.826;2023-06-05T05:42:47;12.10;99.90
32769;DHT22;23049;54.304;8.826;2023-06-05T05:45:12;12.10;99.90
32769;DHT22;23049;54.304;8.826;2023-06-05T05:47:38;12.20;99.90
32769;DHT22;23049;54.304;8.826;2023-06-05T05:50:04;12.20;99.90
32769;DHT22;23049;54.304;8.826;2023-06-05T05:52:30;12.30;99.90
32769;DHT22;23049;54.304;8.826;2023-06-05T05:54:55;12.30;99.90
32769;DHT22;23049;54.304;8.826;2023-06-05T05:57:23;12.30;99.90
32769;DHT22;23049;54.304;8.826;2023-06-05T06:02:01;12.30;99.90
32769;DHT22;23049;54.304;8.826;2023-06-05T06:04:33;12.30;99.90
32769;DHT22;23049;54.304;8.826;2023-06-05T06:06:59;12.50;99.90
32769;DHT22;23049;54.304;8.826;2023-06-05T06:09:26;12.70;99.90
32769;DHT22;23049;54.304;8.826;2023-06-05T06:11:52;12.70;99.90
32769;DHT22;23049;54.304;8.826;2023-06-05T06:14:23;12.70;99.90
32769;DHT22;23049;54.304;8.826;2023-06-05T06:16:49;12.70;99.90
32769;DHT22;23049;54.304;8.826;2023-06-05T06:19:18;12.70;99.90
32769;DHT22;23049;54.304;8.826;2023-06-05T06:21:48;12.70;99.90
32769;DHT22;23049;54.304;8.826;2023-06-05T06:24:14;13.00;99.90
32769;DHT22;23049;54.304;8.826;2023-06-05T06:28:53;13.20;99.90
32769;DHT22;23049;54.304;8.826;2023-06-05T06:31:20;13.20;99.90
32769;DHT22;23049;54.304;8.826;2023-06-05T06:33:47;13.30;99.90
32769;DHT22;23049;54.304;8.826;2023-06-05T06:36:12;13.20;99.90
32769;DHT22;23049;54.304;8.826;2023-06-05T06:38:38;13.30;99.90
32769;DHT22;23049;54.304;8.826;2023-06-05T06:41:04;13.40;99.90
32769;DHT22;23049;54.304;8.826;2023-06-05T06:43:29;13.30;99.90
32769;DHT22;23049;54.304;8.826;2023-06-05T06:45:55;13.20;99.90
32769;DHT22;23049;54.304;8.826;2023-06-05T06:48:20;13.50;99.90
32769;DHT22;23049;54.304;8.826;2023-06-05T06:50:46;13.50;99.90
32769;DHT22;23049;54.304;8.826;2023-06-05T06:53:11;13.60;99.90
32769;DHT22;23049;54.304;8.826;2023-06-05T06:55:37;13.80;99.90
32769;DHT22;23049;54.304;8.826;2023-06-05T06:58:03;13.70;99.90
32769;DHT22;23049;54.304;8.826;2023-06-05T07:00:29;13.60;99.90
32769;DHT22;23049;54.304;8.826;2023-06-05T07:02:54;13.60;99.90
32769;DHT22;23049;54.304;8.826;2023-06-05T07:05:20;13.70;99.90
32769;DHT22;23049;54.304;8.826;2023-06-05T07:07:46;13.60;99.90
32769;DHT22;23049;54.304;8.826;2023-06-05T07:10:11;13.60;99.90
32769;DHT22;23049;54.304;8.826;2023-06-05T07:12:37;13.50;99.90
32769;DHT22;23049;54.304;8.826;2023-06-05T07:15:02;13.50;99.90
32769;DHT22;23049;54.304;8.826;2023-06-05T07:17:28;13.50;99.90
32769;DHT22;23049;54.304;8.826;2023-06-05T07:19:58;13.70;99.90
32769;DHT22;23049;54.304;8.826;2023-06-05T07:22:24;13.70;99.90
32769;DHT22;23049;54.304;8.826;2023-06-05T07:24:56;13.70;99.90
32769;DHT22;23049;54.304;8.826;2023-06-05T07:27:22;13.80;99.90
32769;DHT22;23049;54.304;8.826;2023-06-05T07:29:49;14.00;99.90
32769;DHT22;23049;54.304;8.826;2023-06-05T07:32:18;14.00;99.90
32769;DHT22;23049;54.304;8.826;2023-06-05T07:34:44;14.00;99.90
32769;DHT22;23049;54.304;8.826;2023-06-05T07:37:10;14.00;99.90
32769;DHT22;23049;54.304;8.826;2023-06-05T07:39:36;14.10;99.90
32769;DHT22;23049;54.304;8.826;2023-06-05T07:42:01;14.20;99.90
32769;DHT22;23049;54.304;8.826;2023-06-05T07:44:27;14.20;99.90
32769;DHT22;23049;54.304;8.826;2023-06-05T07:46:52;14.40;99.90
32769;DHT22;23049;54.304;8.826;2023-06-05T07:49:18;14.50;99.90
32769;DHT22;23049;54.304;8.826;2023-06-05T07:51:44;14.70;99.90
32769;DHT22;23049;54.304;8.826;2023-06-05T07:54:12;14.50;99.90
32769;DHT22;23049;54.304;8.826;2023-06-05T07:56:38;14.50;99.90
32769;DHT22;23049;54.304;8.826;2023-06-05T07:59:04;14.30;99.90
32769;DHT22;23049;54.304;8.826;2023-06-05T08:01:29;14.10;99.90
32769;DHT22;23049;54.304;8.826;2023-06-05T08:03:55;14.30;99.90
32769;DHT22;23049;54.304;8.826;2023-06-05T08:06:21;14.20;99.90
32769;DHT22;23049;54.304;8.826;2023-06-05T08:08:46;14.70;99.90
32769;DHT22;23049;54.304;8.826;2023-06-05T08:11:12;15.00;99.90
32769;DHT22;23049;54.304;8.826;2023-06-05T08:13:38;15.00;99.90
32769;DHT22;23049;54.304;8.826;2023-06-05T08:16:06;15.00;99.90
32769;DHT22;23049;54.304;8.826;2023-06-05T08:18:32;14.90;99.90
32769;DHT22;23049;54.304;8.826;2023-06-05T08:20:58;14.90;99.90
32769;DHT22;23049;54.304;8.826;2023-06-05T08:23:23;14.70;99.90
32769;DHT22;23049;54.304;8.826;2023-06-05T08:25:49;14.70;99.90
32769;DHT22;23049;54.304;8.826;2023-06-05T08:28:15;14.60;99.90
32769;DHT22;23049;54.304;8.826;2023-06-05T08:30:41;14.50;99.90
32769;DHT22;23049;54.304;8.826;2023-06-05T08:33:07;14.70;99.90
32769;DHT22;23049;54.304;8.826;2023-06-05T08:35:33;14.80;99.90
32769;DHT22;23049;54.304;8.826;2023-06-05T08:37:58;14.90;99.90
32769;DHT22;23049;54.304;8.826;2023-06-05T08:40:25;14.60;99.90
32769;DHT22;23049;54.304;8.826;2023-06-05T08:42:53;14.90;99.90
32769;DHT22;23049;54.304;8.826;2023-06-05T08:45:19;15.10;99.90
32769;DHT22;23049;54.304;8.826;2023-06-05T08:47:45;15.40;99.90
32769;DHT22;23049;54.304;8.826;2023-06-05T08:50:14;15.00;99.90
32769;DHT22;23049;54.304;8.826;2023-06-05T08:52:41;14.80;99.90
32769;DHT22;23049;54.304;8.826;2023-06-05T08:55:07;14.80;99.90
32769;DHT22;23049;54.304;8.826;2023-06-05T08:57:37;15.00;99.90
32769;DHT22;23049;54.304;8.826;2023-06-05T09:00:03;15.10;99.90
32769;DHT22;23049;54.304;8.826;2023-06-05T09:02:40;15.20;99.90
32769;DHT22;23049;54.304;8.826;2023-06-05T09:05:09;15.00;99.90
32769;DHT22;23049;54.304;8.826;2023-06-05T09:07:35;15.00;99.90
32769;DHT22;23049;54.304;8.826;2023-06-05T09:10:02;15.10;99.90
32769;DHT22;23049;54.304;8.826;2023-06-05T09:12:28;15.30;99.90
32769;DHT22;23049;54.304;8.826;2023-06-05T09:14:53;15.50;99.90
32769;DHT22;23049;54.304;8.826;2023-06-05T09:17:20;15.40;99.90
32769;DHT22;23049;54.304;8.826;2023-06-05T09:19:46;15.40;99.90
32769;DHT22;23049;54.304;8.826;2023-06-05T09:22:12;15.20;99.90
32769;DHT22;23049;54.304;8.826;2023-06-05T09:24:39;15.20;99.90
32769;DHT22;23049;54.304;8.826;2023-06-05T09:27:06;15.30;99.90
32769;DHT22;23049;54.304;8.826;2023-06-05T09:29:34;15.50;99.90
32769;DHT22;23049;54.304;8.826;2023-06-05T09:32:05;15.50;99.90
32769;DHT22;23049;54.304;8.826;2023-06-05T09:34:31;15.70;99.90
32769;DHT22;23049;54.304;8.826;2023-06-05T09:36:58;15.70;99.90
32769;DHT22;23049;54.304;8.826;2023-06-05T09:39:23;15.80;99.90
32769;DHT22;23049;54.304;8.826;2023-06-05T09:41:51;15.80;99.90
32769;DHT22;23049;54.304;8.826;2023-06-05T09:44:17;15.90;99.90
32769;DHT22;23049;54.304;8.826;2023-06-05T09:49:23;15.30;99.90
32769;DHT22;23049;54.304;8.826;2023-06-05T09:51:49;15.40;99.90
32769;DHT22;23049;54.304;8.826;2023-06-05T09:54:14;15.50;99.90
32769;DHT22;23049;54.304;8.826;2023-06-05T09:56:41;15.20;99.90
32769;DHT22;23049;54.304;8.826;2023-06-05T09:59:13;15.20;99.90
32769;DHT22;23049;54.304;8.826;2023-06-05T10:01:39;15.40;99.90
32769;DHT22;23049;54.304;8.826;2023-06-05T10:04:06;15.50;99.90
32769;DHT22;23049;54.304;8.826;2023-06-05T10:06:32;15.40;99.90
32769;DHT22;23049;54.304;8.826;2023-06-05T10:08:58;15.70;99.90
32769;DHT22;23049;54.304;8.826;2023-06-05T10:11:25;15.70;99.90
32769;DHT22;23049;54.304;8.826;2023-06-05T10:13:54;15.80;99.90
32769;DHT22;23049;54.304;8.826;2023-06-05T10:16:20;15.70;99.90
32769;DHT22;23049;54.304;8.826;2023-06-05T10:18:46;15.90;99.90
32769;DHT22;23049;54.304;8.826;2023-06-05T10:21:13;15.90;99.90
32769;DHT22;23049;54.304;8.826;2023-06-05T10:23:38;16.00;99.90
32769;DHT22;23049;54.304;8.826;2023-06-05T10:26:05;16.00;99.90
32769;DHT22;23049;54.304;8.826;2023-06-05T10:28:42;16.00;99.90
32769;DHT22;23049;54.304;8.826;2023-06-05T10:31:13;15.60;99.90
32769;DHT22;23049;54.304;8.826;2023-06-05T10:38:36;16.30;99.90
32769;DHT22;23049;54.304;8.826;2023-06-05T10:41:03;16.40;99.90
32769;DHT22;23049;54.304;8.826;2023-06-05T10:43:30;16.40;99.90
32769;DHT22;23049;54.304;8.826;2023-06-05T10:45:56;16.40;99.90
32769;DHT22;23049;54.304;8.826;2023-06-05T10:49:05;16.40;99.90
32769;DHT22;23049;54.304;8.826;2023-06-05T10:53:52;16.60;99.90
32769;DHT22;23049;54.304;8.826;2023-06-05T10:59:11;16.70;99.90
32769;DHT22;23049;54.304;8.826;2023-06-05T11:01:37;16.70;99.90
32769;DHT22;23049;54.304;8.826;2023-06-05T11:04:03;16.60;99.90
32769;DHT22;23049;54.304;8.826;2023-06-05T11:06:28;16.80;99.90
32769;DHT22;23049;54.304;8.826;2023-06-05T11:11:22;17.40;99.90
32769;DHT22;23049;54.304;8.826;2023-06-05T11:13:56;17.60;99.90
32769;DHT22;23049;54.304;8.826;2023-06-05T11:16:32;17.50;99.90
32769;DHT22;23049;54.304;8.826;2023-06-05T11:24:26;17.50;99.90
32769;DHT22;23049;54.304;8.826;2023-06-05T11:26:51;17.50;99.90
32769;DHT22;23049;54.304;8.826;2023-06-05T11:29:17;17.80;99.90
32769;DHT22;23049;54.304;8.826;2023-06-05T11:31:43;17.90;99.90
32769;DHT22;23049;54.304;8.826;2023-06-05T11:34:12;17.90;99.90
32769;DHT22;23049;54.304;8.826;2023-06-05T11:36:38;18.00;99.90
32769;DHT22;23049;54.304;8.826;2023-06-05T11:39:04;18.10;99.90
32769;DHT22;23049;54.304;8.826;2023-06-05T11:41:29;18.10;99.90
32769;DHT22;23049;54.304;8.826;2023-06-05T11:43:55;17.70;99.90
32769;DHT22;23049;54.304;8.826;2023-06-05T11:46:41;17.60;99.90
32769;DHT22;23049;54.304;8.826;2023-06-05T11:49:09;17.60;99.90
32769;DHT22;23049;54.304;8.826;2023-06-05T11:51:35;17.50;99.90
32769;DHT22;23049;54.304;8.826;2023-06-05T11:54:02;17.80;99.90
32769;DHT22;23049;54.304;8.826;2023-06-05T11:56:28;18.00;99.90
32769;DHT22;23049;54.304;8.826;2023-06-05T11:58:54;18.20;99.90
32769;DHT22;23049;54.304;8.826;2023-06-05T12:01:20;18.40;99.90
32769;DHT22;23049;54.304;8.826;2023-06-05T12:04:06;18.30;99.90
32769;DHT22;23049;54.304;8.826;2023-06-05T12:06:39;18.30;99.90
32769;DHT22;23049;54.304;8.826;2023-06-05T12:09:11;18.50;99.90
32769;DHT22;23049;54.304;8.826;2023-06-05T12:11:37;18.10;99.90
32769;DHT22;23049;54.304;8.826;2023-06-05T12:14:09;18.20;99.90
32769;DHT22;23049;54.304;8.826;2023-06-05T12:19:01;18.10;99.90
32769;DHT22;23049;54.304;8.826;2023-06-05T12:21:27;17.80;99.90
32769;DHT22;23049;54.304;8.826;2023-06-05T12:24:05;17.60;99.90
32769;DHT22;23049;54.304;8.826;2023-06-05T12:29:25;17.90;99.90
32769;DHT22;23049;54.304;8.826;2023-06-05T12:31:51;18.10;99.90
32769;DHT22;23049;54.304;8.826;2023-06-05T12:34:17;18.20;99.90
32769;DHT22;23049;54.304;8.826;2023-06-05T12:36:43;18.10;99.90
32769;DHT22;23049;54.304;8.826;2023-06-05T12:39:10;17.90;99.90
32769;DHT22;23049;54.304;8.826;2023-06-05T12:41:35;18.00;99.90
32769;DHT22;23049;54.304;8.826;2023-06-05T12:44:04;17.60;99.90
32769;DHT22;23049;54.304;8.826;2023-06-05T12:46:30;17.70;99.90
32769;DHT22;23049;54.304;8.826;2023-06-05T12:48:57;17.70;99.90
32769;DHT22;23049;54.304;8.826;2023-06-05T12:51:23;17.90;99.90
32769;DHT22;23049;54.304;8.826;2023-06-05T12:53:49;18.00;99.90
32769;DHT22;23049;54.304;8.826;2023-06-05T12:56:15;17.90;99.90
32769;DHT22;23049;54.304;8.826;2023-06-05T12:58:41;17.60;99.90
32769;DHT22;23049;54.304;8.826;2023-06-05T13:01:06;17.50;99.90
32769;DHT22;23049;54.304;8.826;2023-06-05T13:03:32;17.70;99.90
32769;DHT22;23049;54.304;8.826;2023-06-05T13:05:58;17.50;99.90
32769;DHT22;23049;54.304;8.826;2023-06-05T13:08:24;17.30;99.90
32769;DHT22;23049;54.304;8.826;2023-06-05T13:10:50;17.20;99.90
32769;DHT22;23049;54.304;8.826;2023-06-05T13:13:16;17.40;99.90
32769;DHT22;23049;54.304;8.826;2023-06-05T13:15:42;17.10;99.90
32769;DHT22;23049;54.304;8.826;2023-06-05T13:18:07;17.30;99.90
32769;DHT22;23049;54.304;8.826;2023-06-05T13:20:34;17.30;99.90
32769;DHT22;23049;54.304;8.826;2023-06-05T13:23:00;17.50;99.90
32769;DHT22;23049;54.304;8.826;2023-06-05T13:25:26;17.60;99.90
32769;DHT22;23049;54.304;8.826;2023-06-05T13:30:04;17.60;99.90
32769;DHT22;23049;54.304;8.826;2023-06-05T13:32:31;17.60;99.90
32769;DHT22;23049;54.304;8.826;2023-06-05T13:34:57;17.40;99.90
32769;DHT22;23049;54.304;8.826;2023-06-05T13:37:23;17.30;99.90
32769;DHT22;23049;54.304;8.826;2023-06-05T13:39:51;17.40;99.90
32769;DHT22;23049;54.304;8.826;2023-06-05T13:42:17;17.30;99.90
32769;DHT22;23049;54.304;8.826;2023-06-05T13:44:43;17.40;99.90
32769;DHT22;23049;54.304;8.826;2023-06-05T13:47:09;17.30;99.90
32769;DHT22;23049;54.304;8.826;2023-06-05T13:49:34;17.40;99.90
32769;DHT22;23049;54.304;8.826;2023-06-05T13:52:00;17.10;99.90
32769;DHT22;23049;54.304;8.826;2023-06-05T13:54:26;17.20;99.90
32769;DHT22;23049;54.304;8.826;2023-06-05T13:56:51;17.30;99.90
32769;DHT22;23049;54.304;8.826;2023-06-05T13:59:17;17.40;99.90
32769;DHT22;23049;54.304;8.826;2023-06-05T14:01:42;17.30;99.90
32769;DHT22;23049;54.304;8.826;2023-06-05T14:04:08;17.10;99.90
32769;DHT22;23049;54.304;8.826;2023-06-05T14:06:33;17.20;99.90
32769;DHT22;23049;54.304;8.826;2023-06-05T14:09:02;17.20;99.90
32769;DHT22;23049;54.304;8.826;2023-06-05T14:11:27;17.00;99.90
32769;DHT22;23049;54.304;8.826;2023-06-05T14:13:53;17.00;99.90
32769;DHT22;23049;54.304;8.826;2023-06-05T14:16:19;16.80;99.90
32769;DHT22;23049;54.304;8.826;2023-06-05T14:18:45;16.70;99.90
32769;DHT22;23049;54.304;8.826;2023-06-05T14:21:10;16.90;99.90
32769;DHT22;23049;54.304;8.826;2023-06-05T14:23:36;16.80;99.90
32769;DHT22;23049;54.304;8.826;2023-06-05T14:26:01;17.00;99.90
32769;DHT22;23049;54.304;8.826;2023-06-05T14:28:27;17.00;99.90
32769;DHT22;23049;54.304;8.826;2023-06-05T14:30:53;17.10;99.90
32769;DHT22;23049;54.304;8.826;2023-06-05T14:33:19;17.20;99.90
32769;DHT22;23049;54.304;8.826;2023-06-05T14:35:45;17.10;99.90
32769;DHT22;23049;54.304;8.826;2023-06-05T14:38:10;16.90;99.90
32769;DHT22;23049;54.304;8.826;2023-06-05T14:40:39;16.90;99.90
32769;DHT22;23049;54.304;8.826;2023-06-05T14:43:05;17.00;99.90
32769;DHT22;23049;54.304;8.826;2023-06-05T14:45:31;17.00;99.90
32769;DHT22;23049;54.304;8.826;2023-06-05T14:47:56;17.00;99.90
32769;DHT22;23049;54.304;8.826;2023-06-05T14:50:22;16.80;99.90
32769;DHT22;23049;54.304;8.826;2023-06-05T14:55:01;16.90;99.90
32769;DHT22;23049;54.304;8.826;2023-06-05T14:57:26;16.90;99.90
32769;DHT22;23049;54.304;8.826;2023-06-05T14:59:52;16.80;99.90
32769;DHT22;23049;54.304;8.826;2023-06-05T15:02:17;16.90;99.90
32769;DHT22;23049;54.304;8.826;2023-06-05T15:04:49;17.00;99.90
32769;DHT22;23049;54.304;8.826;2023-06-05T15:07:19;17.00;99.90
32769;DHT22;23049;54.304;8.826;2023-06-05T15:09:47;17.00;99.90
32769;DHT22;23049;54.304;8.826;2023-06-05T15:12:13;17.00;99.90
32769;DHT22;23049;54.304;8.826;2023-06-05T15:14:39;17.10;99.90
32769;DHT22;23049;54.304;8.826;2023-06-05T15:17:04;17.20;99.90
32769;DHT22;23049;54.304;8.826;2023-06-05T15:19:30;17.00;99.90
32769;DHT22;23049;54.304;8.826;2023-06-05T15:21:55;16.80;99.90
32769;DHT22;23049;54.304;8.826;2023-06-05T15:24:21;16.90;99.90
32769;DHT22;23049;54.304;8.826;2023-06-05T15:26:46;16.90;99.90
32769;DHT22;23049;54.304;8.826;2023-06-05T15:29:12;16.90;99.90
32769;DHT22;23049;54.304;8.826;2023-06-05T15:31:37;16.90;99.90
32769;DHT22;23049;54.304;8.826;2023-06-05T15:34:03;16.90;99.90
32769;DHT22;23049;54.304;8.826;2023-06-05T15:36:28;16.80;99.90
32769;DHT22;23049;54.304;8.826;2023-06-05T15:38:54;16.80;99.90
32769;DHT22;23049;54.304;8.826;2023-06-05T15:41:21;16.80;99.90
32769;DHT22;23049;54.304;8.826;2023-06-05T15:43:46;16.80;99.90
32769;DHT22;23049;54.304;8.826;2023-06-05T15:46:12;16.80;99.90
32769;DHT22;23049;54.304;8.826;2023-06-05T15:48:37;16.70;99.90
32769;DHT22;23049;54.304;8.826;2023-06-05T15:51:04;16.80;99.90
32769;DHT22;23049;54.304;8.826;2023-06-05T15:53:29;16.80;99.90
32769;DHT22;23049;54.304;8.826;2023-06-05T15:55:55;16.70;99.90
32769;DHT22;23049;54.304;8.826;2023-06-05T15:58:21;16.80;99.90
32769;DHT22;23049;54.304;8.826;2023-06-05T16:00:47;16.70;99.90
32769;DHT22;23049;54.304;8.826;2023-06-05T16:03:12;16.70;99.90